Time;durP1;ratioP1;P1;durP2;ratioP2;P2;SDS_P1;SDS_P2;PMS_P1;PMS_P2;Temp;Humidity;BMP_temperature;BMP_pressure;BME280_temperature;BME280_humidity;BME280_pressure;Samples;Min_cycle;Max_cycle;Signal;HPM_P1;HPM_P2
2024/03/23 00:01:20;;;;;;;20.17;2.58;;;;;;;;;;5090255;28;20111;-38
2024/03/23 00:03:47;;;;;;;18.85;2.80;;;;;;;;;;5071085;28;20355;-38
2024/03/23 00:06:15;;;;;;;18.80;2.85;;;;;;;;;;5084533;28;20107;-38
2024/03/23 00:08:42;;;;;;;17.58;3.53;;;;;;;;;;5090790;28;20098;-38
2024/03/23 00:11:10;;;;;;;28.40;3.20;;;;;;;;;;5090366;28;20040;-38
2024/03/23 00:13:37;;;;;;;19.02;2.80;;;;;;;;;;5088607;28;20512;-38
2024/03/23 00:16:04;;;;;;;16.58;2.78;;;;;;;;;;5091629;28;20112;-38
2024/03/23 00:18:32;;;;;;;13.73;2.70;;;;;;;;;;5087888;28;20038;-38
2024/03/23 00:21:02;;;;;;;18.10;3.08;;;;;;;;;;5089715;28;20050;-38
2024/03/23 00:23:29;;;;;;;22.80;2.58;;;;;;;;;;5083314;28;20033;-38
2024/03/23 00:25:56;;;;;;;22.92;4.50;;;;;;;;;;5092923;28;20028;-38
2024/03/23 00:28:24;;;;;;;41.05;10.75;;;;;;;;;;5087431;28;20055;-38
2024/03/23 00:30:51;;;;;;;52.55;15.30;;;;;;;;;;5089848;28;20137;-38
2024/03/23 00:33:19;;;;;;;66.80;19.08;;;;;;;;;;5088568;28;20034;-38
2024/03/23 00:35:46;;;;;;;59.20;18.73;;;;;;;;;;5093906;28;20436;-38
2024/03/23 00:38:13;;;;;;;68.25;19.00;;;;;;;;;;5075402;28;20063;-38
2024/03/23 00:40:41;;;;;;;58.90;18.25;;;;;;;;;;5093642;28;20044;-38
2024/03/23 00:43:08;;;;;;;53.20;16.92;;;;;;;;;;5093490;28;20103;-38
2024/03/23 00:45:37;;;;;;;56.42;15.77;;;;;;;;;;5093587;28;20044;-38
2024/03/23 00:48:05;;;;;;;47.33;14.20;;;;;;;;;;5090198;28;20474;-38
2024/03/23 00:50:32;;;;;;;39.78;12.00;;;;;;;;;;5073717;28;20094;-38
2024/03/23 00:52:59;;;;;;;46.33;13.05;;;;;;;;;;5079335;28;20042;-37
2024/03/23 00:55:26;;;;;;;42.05;12.68;;;;;;;;;;5087276;28;20058;-37
2024/03/23 00:57:53;;;;;;;39.28;11.60;;;;;;;;;;5080322;28;20050;-38
2024/03/23 01:00:20;;;;;;;36.15;11.18;;;;;;;;;;5082783;28;20057;-38
2024/03/23 01:02:47;;;;;;;33.03;10.73;;;;;;;;;;5093187;28;20490;-38
2024/03/23 01:05:14;;;;;;;28.27;10.35;;;;;;;;;;5093339;28;20036;-38
2024/03/23 01:07:41;;;;;;;32.13;10.18;;;;;;;;;;5092833;28;20125;-38
2024/03/23 01:10:08;;;;;;;32.38;9.23;;;;;;;;;;5092950;28;20482;-38
2024/03/23 01:12:35;;;;;;;28.15;9.63;;;;;;;;;;5091547;28;20024;-38
2024/03/23 01:15:02;;;;;;;27.15;8.90;;;;;;;;;;5085698;28;20036;-38
2024/03/23 01:17:29;;;;;;;29.13;8.27;;;;;;;;;;5084336;28;20055;-38
2024/03/23 01:19:56;;;;;;;27.80;8.63;;;;;;;;;;5078265;28;20115;-37
2024/03/23 01:22:23;;;;;;;25.08;8.10;;;;;;;;;;5092418;28;20031;-37
2024/03/23 01:24:50;;;;;;;25.23;7.63;;;;;;;;;;5091736;28;20028;-38
2024/03/23 01:27:18;;;;;;;26.02;7.97;;;;;;;;;;5077565;28;20081;-38
2024/03/23 01:29:45;;;;;;;28.35;7.68;;;;;;;;;;5087773;28;20044;-38
2024/03/23 01:32:12;;;;;;;28.13;7.32;;;;;;;;;;5090439;28;20032;-38
2024/03/23 01:34:39;;;;;;;21.63;6.82;;;;;;;;;;5088196;28;20036;-38
2024/03/23 01:37:06;;;;;;;25.73;7.72;;;;;;;;;;5090261;28;20028;-38
2024/03/23 01:39:33;;;;;;;23.50;6.93;;;;;;;;;;5090543;28;20035;-38
2024/03/23 01:42:00;;;;;;;21.15;7.07;;;;;;;;;;5091282;28;20023;-38
2024/03/23 01:44:27;;;;;;;25.52;6.40;;;;;;;;;;5090313;28;20024;-38
2024/03/23 01:46:54;;;;;;;20.00;6.97;;;;;;;;;;5089285;28;20031;-38
2024/03/23 01:49:21;;;;;;;17.83;5.95;;;;;;;;;;5090659;28;20048;-38
2024/03/23 01:51:49;;;;;;;16.25;5.55;;;;;;;;;;5090395;28;20043;-39
2024/03/23 01:54:16;;;;;;;17.95;6.10;;;;;;;;;;5091186;28;20500;-38
2024/03/23 01:56:43;;;;;;;19.73;5.05;;;;;;;;;;5089330;28;20031;-39
2024/03/23 01:59:10;;;;;;;19.20;6.15;;;;;;;;;;5090334;28;20105;-38
2024/03/23 02:01:37;;;;;;;19.33;5.05;;;;;;;;;;5089529;28;20413;-38
2024/03/23 02:04:04;;;;;;;21.45;5.65;;;;;;;;;;5090247;28;20036;-38
2024/03/23 02:06:31;;;;;;;16.13;5.53;;;;;;;;;;5090719;28;20042;-39
2024/03/23 02:08:59;;;;;;;19.45;5.68;;;;;;;;;;5088816;28;20024;-39
2024/03/23 02:11:26;;;;;;;16.08;4.75;;;;;;;;;;5092947;28;20497;-39
2024/03/23 02:13:53;;;;;;;12.98;4.57;;;;;;;;;;5090003;28;20109;-39
2024/03/23 02:16:20;;;;;;;14.02;4.80;;;;;;;;;;5090810;28;20490;-39
2024/03/23 02:18:47;;;;;;;14.63;4.80;;;;;;;;;;5090785;28;20554;-38
2024/03/23 02:21:14;;;;;;;14.32;4.32;;;;;;;;;;5090960;28;20024;-38
2024/03/23 02:23:41;;;;;;;13.45;4.07;;;;;;;;;;5091211;28;20547;-38
2024/03/23 02:26:08;;;;;;;13.75;5.00;;;;;;;;;;5091397;28;20127;-38
2024/03/23 02:28:34;;;;;;;12.55;4.15;;;;;;;;;;5091082;28;20097;-38
2024/03/23 02:31:02;;;;;;;12.02;3.95;;;;;;;;;;5091053;28;20679;-38
2024/03/23 02:33:29;;;;;;;12.50;4.20;;;;;;;;;;5091156;28;20110;-38
2024/03/23 02:35:59;;;;;;;10.80;4.15;;;;;;;;;;5088373;28;20060;-38
2024/03/23 02:38:25;;;;;;;12.18;4.13;;;;;;;;;;5090635;28;20107;-38
2024/03/23 02:40:52;;;;;;;10.15;4.28;;;;;;;;;;5090956;28;20031;-38
2024/03/23 02:43:20;;;;;;;11.32;3.88;;;;;;;;;;5090900;28;20486;-38
2024/03/23 02:45:47;;;;;;;9.77;3.53;;;;;;;;;;5090858;28;20028;-39
2024/03/23 02:48:14;;;;;;;11.20;3.65;;;;;;;;;;5072080;28;20047;-38
2024/03/23 02:50:41;;;;;;;10.15;3.15;;;;;;;;;;5090865;28;20077;-38
2024/03/23 02:53:08;;;;;;;7.75;3.42;;;;;;;;;;5090989;28;20031;-38
2024/03/23 02:55:34;;;;;;;10.30;3.72;;;;;;;;;;5091281;28;20082;-39
2024/03/23 02:58:01;;;;;;;10.32;3.65;;;;;;;;;;5091061;28;20028;-38
2024/03/23 03:00:29;;;;;;;10.32;3.65;;;;;;;;;;5091162;28;20047;-39
2024/03/23 03:02:56;;;;;;;9.18;3.13;;;;;;;;;;5091443;28;20494;-39
2024/03/23 03:05:23;;;;;;;8.35;2.80;;;;;;;;;;5091385;28;20032;-39
2024/03/23 03:07:50;;;;;;;10.85;2.85;;;;;;;;;;5091453;28;20109;-38
2024/03/23 03:10:17;;;;;;;10.63;2.85;;;;;;;;;;5090961;28;20044;-39
2024/03/23 03:12:44;;;;;;;8.85;3.20;;;;;;;;;;5091314;28;20032;-38
2024/03/23 03:15:11;;;;;;;7.25;2.42;;;;;;;;;;5091364;28;20490;-38
2024/03/23 03:17:38;;;;;;;8.95;2.90;;;;;;;;;;5091232;28;20517;-38
2024/03/23 03:20:06;;;;;;;10.50;2.95;;;;;;;;;;5091338;28;20089;-39
2024/03/23 03:22:33;;;;;;;7.75;2.72;;;;;;;;;;5091258;28;20047;-38
2024/03/23 03:25:00;;;;;;;10.50;2.83;;;;;;;;;;5091220;28;20494;-39
2024/03/23 03:27:27;;;;;;;7.78;2.50;;;;;;;;;;5091326;28;20031;-39
2024/03/23 03:29:54;;;;;;;7.18;2.40;;;;;;;;;;5091107;28;20039;-39
2024/03/23 03:32:21;;;;;;;9.15;2.30;;;;;;;;;;5090101;28;20398;-38
2024/03/23 03:34:49;;;;;;;10.02;2.60;;;;;;;;;;5091055;28;20032;-39
2024/03/23 03:37:16;;;;;;;7.45;2.33;;;;;;;;;;5091158;28;20028;-38
2024/03/23 03:39:43;;;;;;;8.13;2.38;;;;;;;;;;5091151;28;20039;-39
2024/03/23 03:42:11;;;;;;;8.82;2.50;;;;;;;;;;5091005;28;20028;-39
2024/03/23 03:44:39;;;;;;;6.10;2.00;;;;;;;;;;5106622;28;20036;-39
2024/03/23 03:47:07;;;;;;;10.57;2.40;;;;;;;;;;5090979;28;20070;-39
2024/03/23 03:49:34;;;;;;;6.55;2.38;;;;;;;;;;5093001;28;20048;-38
2024/03/23 03:52:01;;;;;;;6.78;2.28;;;;;;;;;;5094890;28;20060;-38
2024/03/23 03:54:28;;;;;;;4.95;1.80;;;;;;;;;;5094793;28;20043;-39
2024/03/23 03:56:55;;;;;;;7.93;1.88;;;;;;;;;;5094924;28;20090;-39
2024/03/23 03:59:22;;;;;;;9.07;1.90;;;;;;;;;;5094769;28;20028;-39
2024/03/23 04:01:49;;;;;;;7.15;2.08;;;;;;;;;;5094719;28;20490;-39
2024/03/23 04:04:16;;;;;;;6.53;1.67;;;;;;;;;;5094557;28;20416;-39
2024/03/23 04:06:44;;;;;;;6.32;1.60;;;;;;;;;;5094670;28;20363;-38
2024/03/23 04:09:11;;;;;;;6.63;2.05;;;;;;;;;;5094632;28;20031;-39
2024/03/23 04:11:38;;;;;;;6.10;1.95;;;;;;;;;;5094439;28;20044;-38
2024/03/23 04:14:05;;;;;;;8.60;2.13;;;;;;;;;;5094546;28;20059;-38
2024/03/23 04:16:35;;;;;;;10.43;2.00;;;;;;;;;;5094352;28;20078;-38
2024/03/23 04:19:02;;;;;;;9.88;1.95;;;;;;;;;;5093365;28;20031;-38
2024/03/23 04:21:29;;;;;;;11.23;2.33;;;;;;;;;;5094287;28;20429;-38
2024/03/23 04:23:56;;;;;;;5.13;1.80;;;;;;;;;;5094385;28;20077;-39
2024/03/23 04:26:23;;;;;;;8.80;2.25;;;;;;;;;;5094329;28;20025;-38
2024/03/23 04:28:50;;;;;;;8.32;1.90;;;;;;;;;;5094191;28;20554;-38
2024/03/23 04:31:17;;;;;;;7.97;2.33;;;;;;;;;;5094008;28;20040;-39
2024/03/23 04:33:44;;;;;;;8.20;2.30;;;;;;;;;;5094184;28;20073;-39
2024/03/23 04:36:11;;;;;;;8.93;1.85;;;;;;;;;;5094104;28;20020;-39
2024/03/23 04:38:38;;;;;;;6.40;1.55;;;;;;;;;;5094044;28;20024;-38
2024/03/23 04:41:05;;;;;;;10.35;2.03;;;;;;;;;;5093829;28;20056;-39
2024/03/23 04:43:32;;;;;;;8.32;1.77;;;;;;;;;;5093865;28;20031;-38
2024/03/23 04:45:59;;;;;;;4.82;1.60;;;;;;;;;;5093934;28;20023;-38
2024/03/23 04:48:26;;;;;;;12.35;1.80;;;;;;;;;;5093633;28;20126;-39
2024/03/23 04:50:57;;;;;;;5.45;1.92;;;;;;;;;;5093752;28;20390;-39
2024/03/23 04:53:28;;;;;;;4.73;1.67;;;;;;;;;;5093690;28;20039;-39
2024/03/23 04:55:56;;;;;;;7.95;1.90;;;;;;;;;;5093853;28;20051;-38
2024/03/23 04:58:26;;;;;;;7.32;1.90;;;;;;;;;;5086815;28;20027;-39
2024/03/23 05:00:57;;;;;;;7.00;1.83;;;;;;;;;;5072467;28;20048;-39
2024/03/23 05:03:24;;;;;;;5.50;1.50;;;;;;;;;;5073241;28;20039;-39
2024/03/23 05:05:51;;;;;;;9.27;2.38;;;;;;;;;;5091905;28;20431;-38
2024/03/23 05:08:18;;;;;;;10.25;1.77;;;;;;;;;;5093356;28;20402;-39
2024/03/23 05:10:45;;;;;;;7.00;1.70;;;;;;;;;;5093333;28;20105;-39
2024/03/23 05:13:12;;;;;;;9.85;1.85;;;;;;;;;;5093329;28;20488;-39
2024/03/23 05:15:39;;;;;;;6.00;1.90;;;;;;;;;;5093299;28;20031;-38
2024/03/23 05:18:06;;;;;;;7.20;1.80;;;;;;;;;;5093305;28;20028;-39
2024/03/23 05:20:33;;;;;;;7.45;1.77;;;;;;;;;;5093220;28;20028;-38
2024/03/23 05:23:00;;;;;;;6.50;2.00;;;;;;;;;;5093162;28;20400;-38
2024/03/23 05:25:27;;;;;;;4.75;1.50;;;;;;;;;;5093080;28;20032;-39
2024/03/23 05:27:54;;;;;;;8.32;2.10;;;;;;;;;;5093220;28;20028;-38
2024/03/23 05:30:21;;;;;;;6.65;1.60;;;;;;;;;;5092816;28;20122;-38
2024/03/23 05:32:48;;;;;;;9.48;2.05;;;;;;;;;;5093062;28;20562;-39
2024/03/23 05:35:15;;;;;;;6.57;1.80;;;;;;;;;;5093097;28;20024;-38
2024/03/23 05:37:42;;;;;;;7.50;1.90;;;;;;;;;;5092911;28;20039;-38
2024/03/23 05:40:09;;;;;;;6.60;1.80;;;;;;;;;;5092898;28;20035;-38
2024/03/23 05:42:36;;;;;;;5.75;1.80;;;;;;;;;;5092935;28;20016;-38
2024/03/23 05:45:06;;;;;;;5.53;1.40;;;;;;;;;;5108364;28;20024;-38
2024/03/23 05:47:33;;;;;;;6.25;1.90;;;;;;;;;;5092649;28;20067;-38
2024/03/23 05:50:01;;;;;;;6.03;1.63;;;;;;;;;;5091354;28;20414;-39
2024/03/23 05:52:28;;;;;;;7.68;1.80;;;;;;;;;;5092624;28;20042;-39
2024/03/23 05:54:55;;;;;;;7.90;1.55;;;;;;;;;;5092778;28;20052;-38
2024/03/23 05:57:22;;;;;;;7.43;2.28;;;;;;;;;;5092677;28;20028;-38
2024/03/23 05:59:49;;;;;;;5.97;1.60;;;;;;;;;;5092545;28;20771;-38
2024/03/23 06:02:16;;;;;;;5.10;1.77;;;;;;;;;;5091050;28;20028;-38
2024/03/23 06:04:43;;;;;;;5.45;1.48;;;;;;;;;;5092423;28;20044;-38
2024/03/23 06:07:13;;;;;;;3.60;1.63;;;;;;;;;;5092457;28;20023;-38
2024/03/23 06:09:41;;;;;;;6.85;2.00;;;;;;;;;;5092133;28;20485;-39
2024/03/23 06:12:08;;;;;;;6.05;1.58;;;;;;;;;;5092342;28;20047;-38
2024/03/23 06:14:38;;;;;;;9.73;1.70;;;;;;;;;;5092296;28;20036;-38
2024/03/23 06:17:05;;;;;;;4.65;1.67;;;;;;;;;;5092237;28;20107;-38
2024/03/23 06:19:32;;;;;;;4.68;1.70;;;;;;;;;;5092223;28;20031;-38
2024/03/23 06:21:59;;;;;;;7.30;2.15;;;;;;;;;;5092053;28;20413;-38
2024/03/23 06:24:26;;;;;;;4.85;1.92;;;;;;;;;;5091956;28;20529;-38
2024/03/23 06:26:53;;;;;;;7.63;2.05;;;;;;;;;;5092159;28;20020;-38
2024/03/23 06:29:20;;;;;;;8.23;1.67;;;;;;;;;;5092129;28;20081;-38
2024/03/23 06:31:53;;;;;;;6.88;1.48;;;;;;;;;;5073655;28;20118;-38
2024/03/23 06:34:21;;;;;;;5.18;1.77;;;;;;;;;;5091980;28;20057;-39
2024/03/23 06:36:49;;;;;;;6.03;1.67;;;;;;;;;;5090619;28;20036;-38
2024/03/23 06:39:16;;;;;;;6.32;1.42;;;;;;;;;;5091854;28;20032;-38
2024/03/23 06:41:43;;;;;;;5.20;1.40;;;;;;;;;;5091737;28;20661;-38
2024/03/23 06:44:10;;;;;;;6.70;1.98;;;;;;;;;;5091717;28;20035;-39
2024/03/23 06:46:37;;;;;;;5.75;2.00;;;;;;;;;;5091624;28;20023;-38
2024/03/23 06:49:04;;;;;;;4.70;1.30;;;;;;;;;;5091624;28;20301;-39
2024/03/23 06:51:31;;;;;;;6.32;1.80;;;;;;;;;;5091356;28;20094;-38
2024/03/23 06:54:00;;;;;;;6.18;1.60;;;;;;;;;;5091537;28;20058;-39
2024/03/23 06:56:27;;;;;;;5.97;1.83;;;;;;;;;;5091568;28;20504;-38
2024/03/23 06:58:54;;;;;;;5.28;1.48;;;;;;;;;;5091679;28;20424;-38
2024/03/23 07:01:21;;;;;;;6.65;1.77;;;;;;;;;;5091424;28;20055;-38
2024/03/23 07:03:48;;;;;;;3.92;1.70;;;;;;;;;;5091619;28;20017;-38
2024/03/23 07:06:15;;;;;;;3.33;1.25;;;;;;;;;;5091438;28;20028;-39
2024/03/23 07:08:42;;;;;;;5.82;1.35;;;;;;;;;;5091569;28;20078;-39
2024/03/23 07:11:09;;;;;;;6.32;1.70;;;;;;;;;;5091396;28;20032;-39
2024/03/23 07:13:36;;;;;;;4.47;1.70;;;;;;;;;;5091355;28;20505;-38
2024/03/23 07:16:03;;;;;;;5.18;1.80;;;;;;;;;;5091406;28;20387;-38
2024/03/23 07:18:30;;;;;;;4.78;1.73;;;;;;;;;;5091433;28;20024;-38
2024/03/23 07:20:57;;;;;;;5.03;1.60;;;;;;;;;;5091430;28;20024;-38
2024/03/23 07:23:25;;;;;;;5.57;2.03;;;;;;;;;;5090680;28;20020;-38
2024/03/23 07:26:01;;;;;;;4.65;1.60;;;;;;;;;;5095419;28;20024;-39
2024/03/23 07:28:37;;;;;;;5.78;1.50;;;;;;;;;;5095516;28;20028;-39
2024/03/23 07:31:10;;;;;;;5.20;1.77;;;;;;;;;;5095330;28;20032;-38
2024/03/23 07:33:38;;;;;;;6.13;1.83;;;;;;;;;;5095324;28;20032;-39
2024/03/23 07:36:05;;;;;;;5.97;1.70;;;;;;;;;;5095466;28;20524;-38
2024/03/23 07:38:32;;;;;;;4.72;1.98;;;;;;;;;;5095277;28;20126;-38
2024/03/23 07:41:12;;;;;;;4.85;1.77;;;;;;;;;;5095231;28;20020;-39
2024/03/23 07:43:42;;;;;;;4.72;1.88;;;;;;;;;;5095117;28;20114;-39
2024/03/23 07:46:10;;;;;;;5.72;2.10;;;;;;;;;;5095128;28;20089;-39
2024/03/23 07:48:36;;;;;;;8.50;1.88;;;;;;;;;;5094916;28;20627;-38
2024/03/23 07:51:04;;;;;;;8.05;2.00;;;;;;;;;;5094965;28;20375;-38
2024/03/23 07:53:32;;;;;;;5.18;1.92;;;;;;;;;;5095055;28;20031;-38
2024/03/23 07:56:01;;;;;;;7.47;2.22;;;;;;;;;;5093646;28;20556;-38
2024/03/23 07:58:28;;;;;;;6.22;1.88;;;;;;;;;;5094952;28;20028;-39
2024/03/23 08:00:55;;;;;;;6.72;1.92;;;;;;;;;;5094281;28;20036;-39
2024/03/23 08:03:23;;;;;;;9.43;2.17;;;;;;;;;;5094925;28;20027;-39
2024/03/23 08:05:50;;;;;;;7.38;2.40;;;;;;;;;;5094720;28;20105;-39
2024/03/23 08:08:17;;;;;;;4.07;1.75;;;;;;;;;;5093762;28;20024;-39
2024/03/23 08:10:51;;;;;;;6.72;2.17;;;;;;;;;;5094552;28;20040;-39
2024/03/23 08:13:18;;;;;;;7.63;1.85;;;;;;;;;;5094652;28;20107;-39
2024/03/23 08:15:46;;;;;;;3.95;1.58;;;;;;;;;;5094615;28;20045;-39
2024/03/23 08:18:15;;;;;;;4.95;2.20;;;;;;;;;;5094636;28;20035;-39
2024/03/23 08:20:42;;;;;;;4.72;2.05;;;;;;;;;;5094511;28;20036;-39
2024/03/23 08:23:09;;;;;;;3.50;1.67;;;;;;;;;;5094587;28;20024;-39
2024/03/23 08:25:36;;;;;;;6.63;1.90;;;;;;;;;;5094433;28;20441;-39
2024/03/23 08:28:03;;;;;;;4.97;2.10;;;;;;;;;;5094497;28;20020;-38
2024/03/23 08:30:30;;;;;;;3.75;2.20;;;;;;;;;;5094152;28;20135;-38
2024/03/23 08:32:57;;;;;;;5.00;1.80;;;;;;;;;;5094210;28;20410;-38
2024/03/23 08:35:24;;;;;;;6.88;2.08;;;;;;;;;;5093058;28;20028;-38
2024/03/23 08:37:51;;;;;;;5.20;1.83;;;;;;;;;;5094163;28;20066;-38
2024/03/23 08:40:18;;;;;;;4.05;1.90;;;;;;;;;;5093906;28;20028;-38
2024/03/23 08:42:45;;;;;;;6.40;1.83;;;;;;;;;;5094196;28;20112;-39
2024/03/23 08:45:12;;;;;;;6.85;2.15;;;;;;;;;;5094081;28;20043;-38
2024/03/23 08:47:39;;;;;;;5.07;2.10;;;;;;;;;;5093906;28;20024;-39
2024/03/23 08:50:06;;;;;;;5.10;1.80;;;;;;;;;;5093600;28;20052;-39
2024/03/23 08:52:33;;;;;;;6.68;2.22;;;;;;;;;;5093824;28;20550;-38
2024/03/23 08:55:01;;;;;;;5.25;2.38;;;;;;;;;;5092815;28;20478;-38
2024/03/23 08:57:28;;;;;;;7.68;2.30;;;;;;;;;;5097736;28;20508;-38
2024/03/23 08:59:55;;;;;;;6.28;2.00;;;;;;;;;;5114001;28;20030;-39
2024/03/23 09:02:22;;;;;;;6.82;2.13;;;;;;;;;;5113958;28;20031;-38
2024/03/23 09:04:49;;;;;;;5.28;2.28;;;;;;;;;;5113897;28;20115;-38
2024/03/23 09:07:15;;;;;;;5.60;2.42;;;;;;;;;;5113874;28;20068;-38
2024/03/23 09:09:42;;;;;;;7.00;2.40;;;;;;;;;;5113813;28;20088;-38
2024/03/23 09:12:09;;;;;;;4.10;2.25;;;;;;;;;;5113778;28;20039;-38
2024/03/23 09:14:36;;;;;;;6.07;2.30;;;;;;;;;;5113838;28;20051;-39
2024/03/23 09:17:04;;;;;;;5.75;2.50;;;;;;;;;;5113897;28;20556;-38
2024/03/23 09:19:30;;;;;;;7.32;2.53;;;;;;;;;;5113708;28;20023;-39
2024/03/23 09:25:14;;;;;;;4.35;2.22;;;;;;;;;;5115740;28;20550;-39
2024/03/23 09:31:03;;;;;;;7.70;2.72;;;;;;;;;;5101734;28;20078;-38
2024/03/23 09:33:30;;;;;;;6.50;2.60;;;;;;;;;;5093152;28;20028;-38
2024/03/23 09:35:57;;;;;;;5.15;2.30;;;;;;;;;;5093007;28;20025;-38
2024/03/23 09:38:24;;;;;;;6.13;2.72;;;;;;;;;;5074953;28;20372;-38
2024/03/23 09:40:53;;;;;;;5.25;2.20;;;;;;;;;;5085407;28;20489;-38
2024/03/23 09:43:20;;;;;;;5.32;2.60;;;;;;;;;;5092998;28;20073;-38
2024/03/23 09:45:47;;;;;;;6.75;2.95;;;;;;;;;;5092722;28;20383;-38
2024/03/23 09:48:14;;;;;;;5.50;2.55;;;;;;;;;;5092140;28;20481;-39
2024/03/23 09:50:41;;;;;;;6.00;2.60;;;;;;;;;;5092574;28;20040;-38
2024/03/23 09:53:09;;;;;;;5.30;2.35;;;;;;;;;;5092774;28;20118;-38
2024/03/23 09:55:36;;;;;;;7.97;2.53;;;;;;;;;;5092658;28;20031;-38
2024/03/23 09:58:04;;;;;;;6.55;2.63;;;;;;;;;;5092606;28;20392;-38
2024/03/23 10:00:32;;;;;;;7.03;2.60;;;;;;;;;;5083070;28;20036;-38
2024/03/23 10:03:01;;;;;;;7.20;2.67;;;;;;;;;;5092267;28;20116;-38
2024/03/23 10:05:31;;;;;;;9.15;3.08;;;;;;;;;;5092355;28;20040;-38
2024/03/23 10:07:58;;;;;;;7.65;2.85;;;;;;;;;;5092144;28;20036;-39
2024/03/23 10:10:28;;;;;;;7.50;2.83;;;;;;;;;;5092208;28;20110;-38
2024/03/23 10:12:55;;;;;;;7.70;2.55;;;;;;;;;;5092356;28;20425;-38
2024/03/23 10:15:24;;;;;;;7.70;2.80;;;;;;;;;;5092406;28;20020;-38
2024/03/23 10:17:51;;;;;;;8.20;3.00;;;;;;;;;;5092168;28;20031;-38
2024/03/23 10:20:25;;;;;;;7.32;2.70;;;;;;;;;;5092038;28;20028;-39
2024/03/23 10:22:52;;;;;;;6.85;2.53;;;;;;;;;;5092210;28;20035;-38
2024/03/23 10:25:23;;;;;;;7.85;2.85;;;;;;;;;;5090951;28;20047;-39
2024/03/23 10:28:00;;;;;;;5.88;2.85;;;;;;;;;;5091943;28;20493;-38
2024/03/23 10:30:27;;;;;;;5.85;2.90;;;;;;;;;;5091780;28;20036;-38
2024/03/23 10:33:10;;;;;;;5.88;2.65;;;;;;;;;;5091996;28;20030;-38
2024/03/23 10:35:38;;;;;;;5.28;2.75;;;;;;;;;;5091870;28;20028;-38
2024/03/23 10:38:08;;;;;;;4.93;2.53;;;;;;;;;;5091924;28;20082;-38
2024/03/23 10:40:36;;;;;;;6.13;3.03;;;;;;;;;;5091688;28;20036;-38
2024/03/23 10:43:05;;;;;;;6.60;2.92;;;;;;;;;;5091837;28;20110;-38
2024/03/23 10:45:32;;;;;;;6.30;2.42;;;;;;;;;;5091795;28;20036;-39
2024/03/23 10:47:59;;;;;;;5.70;2.63;;;;;;;;;;5091647;28;20161;-39
2024/03/23 10:50:26;;;;;;;7.63;2.78;;;;;;;;;;5091239;28;20414;-38
2024/03/23 10:52:55;;;;;;;7.68;3.00;;;;;;;;;;5091727;28;20032;-38
2024/03/23 10:55:23;;;;;;;8.05;3.40;;;;;;;;;;5091754;28;20494;-38
2024/03/23 10:57:53;;;;;;;5.45;2.67;;;;;;;;;;5091347;28;20057;-38
2024/03/23 11:00:21;;;;;;;8.73;2.72;;;;;;;;;;5091006;28;20486;-38
2024/03/23 11:02:51;;;;;;;5.72;2.75;;;;;;;;;;5091401;28;20040;-39
2024/03/23 11:05:27;;;;;;;6.97;2.65;;;;;;;;;;5091478;28;20028;-38
2024/03/23 11:07:54;;;;;;;4.68;2.47;;;;;;;;;;5091398;28;20032;-38
2024/03/23 11:10:29;;;;;;;6.68;2.67;;;;;;;;;;5091258;28;20035;-38
2024/03/23 11:12:56;;;;;;;5.32;2.58;;;;;;;;;;5090275;28;20104;-38
2024/03/23 11:15:23;;;;;;;9.25;3.03;;;;;;;;;;5091520;28;20040;-38
2024/03/23 11:18:08;;;;;;;6.35;3.03;;;;;;;;;;5091385;28;20030;-38
2024/03/23 11:20:36;;;;;;;8.43;3.15;;;;;;;;;;5091418;28;20042;-38
2024/03/23 11:23:03;;;;;;;8.05;2.70;;;;;;;;;;5091415;28;20429;-38
2024/03/23 11:25:30;;;;;;;5.53;2.80;;;;;;;;;;5091344;28;20024;-38
2024/03/23 11:27:57;;;;;;;5.22;2.45;;;;;;;;;;5091140;28;20028;-38
2024/03/23 11:30:25;;;;;;;6.57;2.92;;;;;;;;;;5090631;28;20043;-39
2024/03/23 11:32:53;;;;;;;7.72;2.85;;;;;;;;;;5090740;28;20034;-38
2024/03/23 11:35:26;;;;;;;7.65;2.88;;;;;;;;;;5090666;28;20024;-38
2024/03/23 11:38:02;;;;;;;6.40;2.60;;;;;;;;;;5096590;28;20028;-39
2024/03/23 11:40:30;;;;;;;8.48;2.80;;;;;;;;;;5091016;28;20032;-38
2024/03/23 11:42:59;;;;;;;8.18;3.03;;;;;;;;;;5091088;28;20032;-38
2024/03/23 11:45:26;;;;;;;7.22;2.63;;;;;;;;;;5099823;28;20114;-37
2024/03/23 11:48:09;;;;;;;7.50;2.85;;;;;;;;;;5100717;28;20055;-37
2024/03/23 11:50:38;;;;;;;10.13;3.22;;;;;;;;;;5099947;28;20048;-38
2024/03/23 11:53:08;;;;;;;14.52;3.42;;;;;;;;;;5097307;28;20062;-37
2024/03/23 11:55:42;;;;;;;6.95;2.90;;;;;;;;;;5099468;28;20032;-39
2024/03/23 11:58:09;;;;;;;7.45;3.10;;;;;;;;;;5087311;28;20020;-37
2024/03/23 12:00:37;;;;;;;8.55;3.10;;;;;;;;;;5090277;28;20032;-38
2024/03/23 12:03:04;;;;;;;10.05;3.10;;;;;;;;;;5087405;28;20119;-37
2024/03/23 12:05:34;;;;;;;8.68;3.10;;;;;;;;;;5090310;28;20036;-37
2024/03/23 12:08:21;;;;;;;8.52;3.17;;;;;;;;;;5090352;28;20046;-37
2024/03/23 12:10:51;;;;;;;10.55;3.67;;;;;;;;;;5093077;28;20478;-37
2024/03/23 12:13:18;;;;;;;10.57;3.63;;;;;;;;;;5094501;28;20085;-37
2024/03/23 12:15:46;;;;;;;11.65;3.42;;;;;;;;;;5094104;28;20105;-38
2024/03/23 12:18:13;;;;;;;11.40;3.50;;;;;;;;;;5094043;28;20055;-37
2024/03/23 12:20:40;;;;;;;10.98;3.78;;;;;;;;;;5091267;28;20385;-37
2024/03/23 12:23:11;;;;;;;15.05;3.50;;;;;;;;;;5093863;28;20543;-37
2024/03/23 12:25:41;;;;;;;13.73;4.18;;;;;;;;;;5096627;28;20111;-38
2024/03/23 12:28:08;;;;;;;12.07;3.92;;;;;;;;;;5094335;28;20028;-38
2024/03/23 12:30:36;;;;;;;10.15;3.47;;;;;;;;;;5093642;28;20058;-38
2024/03/23 12:33:03;;;;;;;13.25;4.05;;;;;;;;;;5094163;28;20036;-38
2024/03/23 12:35:30;;;;;;;10.25;3.83;;;;;;;;;;5093691;28;20035;-39
2024/03/23 12:37:57;;;;;;;13.63;3.50;;;;;;;;;;5093671;28;20463;-38
2024/03/23 12:40:24;;;;;;;12.68;3.60;;;;;;;;;;5093341;28;20040;-38
2024/03/23 12:42:51;;;;;;;12.73;3.88;;;;;;;;;;5093298;28;20032;-38
2024/03/23 12:45:18;;;;;;;9.55;3.80;;;;;;;;;;5092055;28;20031;-38
2024/03/23 12:47:45;;;;;;;14.30;3.72;;;;;;;;;;5092791;28;20149;-37
2024/03/23 12:50:12;;;;;;;9.98;3.95;;;;;;;;;;5092611;28;20132;-37
2024/03/23 12:52:39;;;;;;;9.85;3.67;;;;;;;;;;5092942;28;20032;-38
2024/03/23 12:55:06;;;;;;;13.55;3.72;;;;;;;;;;5092056;28;20028;-39
2024/03/23 12:57:33;;;;;;;9.88;3.13;;;;;;;;;;5091844;28;20474;-39
2024/03/23 13:00:00;;;;;;;10.25;3.03;;;;;;;;;;5092545;28;20051;-37
2024/03/23 13:02:27;;;;;;;16.83;3.55;;;;;;;;;;5092704;28;20018;-39
2024/03/23 13:04:55;;;;;;;14.60;3.63;;;;;;;;;;5092273;28;20016;-38
2024/03/23 13:07:22;;;;;;;10.95;3.30;;;;;;;;;;5073914;28;20028;-37
2024/03/23 13:09:52;;;;;;;16.73;4.28;;;;;;;;;;5091043;28;20125;-39
2024/03/23 13:12:20;;;;;;;9.30;3.00;;;;;;;;;;5089425;28;20498;-37
2024/03/23 13:14:48;;;;;;;13.57;3.38;;;;;;;;;;5091489;28;20114;-37
2024/03/23 13:17:15;;;;;;;8.63;3.10;;;;;;;;;;5091976;28;20114;-38
2024/03/23 13:19:42;;;;;;;13.75;3.83;;;;;;;;;;5091818;28;20114;-39
2024/03/23 13:22:11;;;;;;;7.47;3.17;;;;;;;;;;5091207;28;20545;-37
2024/03/23 13:24:39;;;;;;;8.57;3.10;;;;;;;;;;5091468;28;20062;-38
2024/03/23 13:27:07;;;;;;;11.50;2.90;;;;;;;;;;5092355;28;20058;-38
2024/03/23 13:29:35;;;;;;;14.80;3.45;;;;;;;;;;5090933;28;20371;-39
2024/03/23 13:32:02;;;;;;;10.15;3.13;;;;;;;;;;5092074;28;20204;-39
2024/03/23 13:34:29;;;;;;;9.35;2.88;;;;;;;;;;5092222;28;20028;-37
2024/03/23 13:36:59;;;;;;;7.82;3.03;;;;;;;;;;5092056;28;20115;-39
2024/03/23 13:39:29;;;;;;;7.65;2.78;;;;;;;;;;5091993;28;20035;-37
2024/03/23 13:41:56;;;;;;;13.70;3.30;;;;;;;;;;5088335;28;20129;-38
2024/03/23 13:44:24;;;;;;;11.93;2.60;;;;;;;;;;5091478;28;20120;-38
2024/03/23 13:46:51;;;;;;;7.07;2.85;;;;;;;;;;5091227;28;20024;-38
2024/03/23 13:49:40;;;;;;;9.68;2.95;;;;;;;;;;5089858;28;20131;-38
2024/03/23 13:52:08;;;;;;;8.98;3.00;;;;;;;;;;5090747;28;20051;-38
2024/03/23 13:54:35;;;;;;;10.85;3.03;;;;;;;;;;5091689;28;20036;-38
2024/03/23 13:57:02;;;;;;;9.65;2.85;;;;;;;;;;5090656;28;20027;-37
2024/03/23 13:59:30;;;;;;;7.03;2.30;;;;;;;;;;5090999;28;20039;-38
2024/03/23 14:01:57;;;;;;;10.40;2.85;;;;;;;;;;5091033;28;20582;-39
2024/03/23 14:04:25;;;;;;;14.95;3.00;;;;;;;;;;5091254;28;20049;-37
2024/03/23 14:06:52;;;;;;;13.95;3.30;;;;;;;;;;5088362;28;20028;-37
2024/03/23 14:09:22;;;;;;;10.38;3.15;;;;;;;;;;5091711;28;20020;-38
2024/03/23 14:11:50;;;;;;;9.75;2.83;;;;;;;;;;5091228;28;20063;-37
2024/03/23 14:14:17;;;;;;;12.57;3.03;;;;;;;;;;5091584;28;20513;-37
2024/03/23 14:16:44;;;;;;;19.55;3.00;;;;;;;;;;5090171;28;20039;-39
2024/03/23 14:19:11;;;;;;;15.02;2.63;;;;;;;;;;5088935;28;20032;-39
2024/03/23 14:21:38;;;;;;;12.13;3.20;;;;;;;;;;5091844;28;20020;-39
2024/03/23 14:24:06;;;;;;;14.98;3.22;;;;;;;;;;5091932;28;20032;-39
2024/03/23 14:26:33;;;;;;;14.23;3.17;;;;;;;;;;5091724;28;20020;-40
2024/03/23 14:29:00;;;;;;;15.13;3.08;;;;;;;;;;5091729;28;20153;-39
2024/03/23 14:31:27;;;;;;;14.20;3.60;;;;;;;;;;5091566;28;20039;-39
2024/03/23 14:33:54;;;;;;;17.90;2.80;;;;;;;;;;5090808;28;20056;-39
2024/03/23 14:36:21;;;;;;;12.40;3.42;;;;;;;;;;5091511;28;20024;-40
2024/03/23 14:38:52;;;;;;;10.90;3.42;;;;;;;;;;5091443;28;20039;-39
2024/03/23 14:41:19;;;;;;;17.23;3.05;;;;;;;;;;5072711;28;20363;-39
2024/03/23 14:43:48;;;;;;;16.95;2.78;;;;;;;;;;5091251;28;20440;-39
2024/03/23 14:46:16;;;;;;;17.67;3.55;;;;;;;;;;5091337;28;20489;-39
2024/03/23 14:48:46;;;;;;;12.00;3.35;;;;;;;;;;5090735;28;20105;-39